Time;durP1;ratioP1;P1;durP2;ratioP2;P2;SDS_P1;SDS_P2;PMS_P1;PMS_P2;Temp;Humidity;BMP_temperature;BMP_pressure;BME280_temperature;BME280_humidity;BME280_pressure;Samples;Min_cycle;Max_cycle;Signal;HPM_P1;HPM_P2
2023/03/13 00:01:39;;;;;;;8.37;1.40;;;;;;;10.66;66.65;98199.97;4962935;28;20603;-62
2023/03/13 00:04:06;;;;;;;8.13;1.80;;;;;;;10.70;66.67;98201.28;4973637;28;20246;-61
2023/03/13 00:06:36;;;;;;;11.43;1.60;;;;;;;10.70;67.07;98185.63;4970706;28;20226;-62
2023/03/13 00:09:04;;;;;;;9.73;2.03;;;;;;;10.76;66.96;98206.66;4971548;28;20247;-62
2023/03/13 00:11:31;;;;;;;5.83;1.20;;;;;;;10.77;67.36;98202.25;4970552;28;20237;-63
2023/03/13 00:14:00;;;;;;;4.90;1.63;;;;;;;10.76;66.75;98211.06;4964760;28;20240;-62
2023/03/13 00:16:28;;;;;;;10.00;1.83;;;;;;;10.80;66.74;98193.28;4971885;28;20235;-62
2023/03/13 00:18:56;;;;;;;7.80;1.53;;;;;;;10.78;67.39;98183.00;4969431;28;20235;-62
2023/03/13 00:21:25;;;;;;;8.20;1.60;;;;;;;10.74;67.61;98187.72;4967958;28;20233;-63
2023/03/13 00:23:53;;;;;;;8.43;1.60;;;;;;;10.85;66.25;98188.38;4960226;28;20292;-63
2023/03/13 00:26:22;;;;;;;8.67;1.60;;;;;;;10.89;66.73;98185.31;4974472;28;20223;-61
2023/03/13 00:28:50;;;;;;;7.13;1.30;;;;;;;10.94;66.40;98176.97;4963835;28;20270;-62
2023/03/13 00:31:19;;;;;;;11.20;2.37;;;;;;;10.97;66.89;98173.22;4960770;28;20232;-63
2023/03/13 00:33:47;;;;;;;8.30;1.23;;;;;;;10.97;67.35;98160.97;4968841;28;21228;-62
2023/03/13 00:36:15;;;;;;;6.57;1.13;;;;;;;11.01;66.73;98170.09;4956055;28;20232;-62
2023/03/13 00:38:43;;;;;;;10.67;1.40;;;;;;;10.98;66.81;98154.75;4970333;28;20641;-63
2023/03/13 00:41:12;;;;;;;7.70;1.73;;;;;;;11.02;65.97;98150.84;4975480;28;20446;-62
2023/03/13 00:43:40;;;;;;;5.40;1.17;;;;;;;11.02;66.78;98150.03;4961836;28;20302;-62
2023/03/13 00:46:06;;;;;;;6.87;1.30;;;;;;;11.02;66.51;98139.59;4981233;28;20252;-63
2023/03/13 00:48:34;;;;;;;6.80;1.37;;;;;;;10.96;68.05;98148.88;4967021;28;20230;-62
2023/03/13 00:51:01;;;;;;;5.07;1.00;;;;;;;11.06;67.28;98140.91;4968969;28;20653;-61
2023/03/13 00:53:27;;;;;;;4.97;1.10;;;;;;;11.07;67.70;98137.31;4963820;28;20233;-62
2023/03/13 00:55:56;;;;;;;4.03;1.03;;;;;;;10.99;67.84;98138.13;4963571;28;20273;-61
2023/03/13 00:58:25;;;;;;;6.50;1.00;;;;;;;11.08;67.69;98124.06;4963963;28;20300;-61
2023/03/13 01:00:52;;;;;;;4.97;1.30;;;;;;;11.12;68.42;98137.63;4961264;28;20680;-61
2023/03/13 01:03:20;;;;;;;8.70;1.50;;;;;;;11.04;68.25;98129.78;4979014;28;20230;-63
2023/03/13 01:05:55;;;;;;;4.27;1.23;;;;;;;11.10;68.48;98125.69;4961024;28;20711;-61
2023/03/13 01:08:22;;;;;;;7.60;1.10;;;;;;;11.08;68.88;98116.22;4962581;28;20768;-61
2023/03/13 01:10:48;;;;;;;3.83;1.10;;;;;;;11.06;68.77;98120.81;4960553;28;21220;-62
2023/03/13 01:13:15;;;;;;;6.17;1.07;;;;;;;11.10;69.11;98121.28;4975862;28;20690;-61
2023/03/13 01:15:43;;;;;;;4.30;1.20;;;;;;;11.17;69.73;98129.28;4968240;28;20770;-61
2023/03/13 01:18:09;;;;;;;5.23;1.03;;;;;;;11.15;70.32;98112.94;4973262;28;20646;-60
2023/03/13 01:20:36;;;;;;;6.50;1.00;;;;;;;11.22;69.36;98112.09;4960546;28;20690;-61
2023/03/13 01:23:02;;;;;;;4.50;1.07;;;;;;;11.31;68.89;98115.53;4968275;28;20291;-61
2023/03/13 01:25:29;;;;;;;3.70;1.20;;;;;;;11.34;69.41;98112.56;4980603;28;20637;-61
2023/03/13 01:27:57;;;;;;;3.73;1.10;;;;;;;11.36;69.98;98104.53;4971093;28;20710;-61
2023/03/13 01:30:24;;;;;;;3.73;1.00;;;;;;;11.35;69.89;98088.06;4963717;28;20594;-61
2023/03/13 01:32:52;;;;;;;4.10;0.73;;;;;;;11.44;72.58;98090.66;4970866;28;20248;-61
2023/03/13 01:35:18;;;;;;;8.77;1.20;;;;;;;11.41;73.32;98101.44;4969075;28;20220;-62
2023/03/13 01:37:45;;;;;;;4.97;1.00;;;;;;;11.35;73.18;98087.25;4968579;28;20257;-61
2023/03/13 01:40:12;;;;;;;4.97;1.03;;;;;;;11.36;75.38;98078.41;4966956;28;20237;-62
2023/03/13 01:42:53;;;;;;;5.03;1.10;;;;;;;11.23;77.72;98082.38;4965442;28;20242;-61
2023/03/13 01:45:56;;;;;;;5.53;1.27;;;;;;;11.16;80.14;98078.00;4967098;28;20246;-61
2023/03/13 01:48:30;;;;;;;2.50;0.70;;;;;;;11.05;81.60;98082.59;4963404;28;20310;-61
2023/03/13 01:51:00;;;;;;;4.13;0.70;;;;;;;10.98;83.39;98079.03;4955040;28;20403;-61
2023/03/13 01:53:32;;;;;;;4.80;0.77;;;;;;;10.98;84.20;98073.00;4972739;28;20302;-61
2023/03/13 01:56:00;;;;;;;3.97;1.10;;;;;;;10.94;85.96;98067.28;4978936;28;20572;-61
2023/03/13 01:58:30;;;;;;;7.47;0.90;;;;;;;10.90;85.45;98053.75;4970105;28;20301;-61
2023/03/13 02:00:58;;;;;;;4.27;1.00;;;;;;;10.85;86.61;98061.28;4949059;28;20231;-62
2023/03/13 02:03:27;;;;;;;4.23;0.93;;;;;;;10.76;86.78;98055.25;4963960;28;20298;-62
2023/03/13 02:05:56;;;;;;;7.67;1.13;;;;;;;10.70;87.95;98055.09;4957740;28;20244;-61
2023/03/13 02:08:26;;;;;;;4.80;1.13;;;;;;;10.61;89.56;98055.13;4975322;28;20230;-61
2023/03/13 02:11:01;;;;;;;3.63;0.70;;;;;;;10.66;89.28;98064.25;4966816;28;20241;-61
2023/03/13 02:13:29;;;;;;;4.63;1.30;;;;;;;10.61;89.69;98046.44;4953532;28;20239;-61
2023/03/13 02:15:56;;;;;;;5.70;1.00;;;;;;;10.63;89.73;98053.16;4966057;28;20227;-61
2023/03/13 02:18:24;;;;;;;6.00;1.07;;;;;;;10.62;90.93;98056.75;4967544;28;20260;-62
2023/03/13 02:21:00;;;;;;;2.97;0.97;;;;;;;10.55;91.72;98053.16;4965822;28;20255;-61
2023/03/13 02:23:34;;;;;;;3.53;1.20;;;;;;;10.55;92.16;98053.16;4978090;28;20247;-61
2023/03/13 02:26:03;;;;;;;3.60;0.90;;;;;;;10.57;92.21;98037.34;4949570;28;20250;-61
2023/03/13 02:28:37;;;;;;;5.57;0.97;;;;;;;10.54;91.79;98025.44;4957740;28;20223;-61
2023/03/13 02:31:06;;;;;;;4.43;0.90;;;;;;;10.46;94.02;98018.44;4982889;28;20718;-61
2023/03/13 02:33:38;;;;;;;4.60;0.73;;;;;;;10.50;93.77;98016.31;4954401;28;20330;-62
2023/03/13 02:36:07;;;;;;;4.00;0.60;;;;;;;10.52;92.92;98009.13;4979947;28;20342;-61
2023/03/13 02:38:42;;;;;;;2.53;0.97;;;;;;;10.56;91.59;98001.81;4978685;28;20237;-62
2023/03/13 02:41:13;;;;;;;3.67;1.00;;;;;;;10.56;92.47;97999.19;4966299;28;20831;-61
2023/03/13 02:43:39;;;;;;;2.83;1.00;;;;;;;10.48;92.58;97981.72;4970415;28;20239;-62
2023/03/13 02:46:10;;;;;;;1.90;0.70;;;;;;;10.54;92.27;97972.44;4971774;28;20244;-62
2023/03/13 02:48:43;;;;;;;5.17;0.80;;;;;;;10.53;91.75;97963.78;4956405;28;20310;-62
2023/03/13 02:51:16;;;;;;;5.30;0.80;;;;;;;10.60;91.07;97969.97;4964061;28;20238;-61
2023/03/13 02:53:44;;;;;;;4.33;0.83;;;;;;;10.67;91.12;97966.69;4954490;28;20227;-61
2023/03/13 02:56:15;;;;;;;4.10;0.90;;;;;;;10.70;90.75;97958.53;4954076;28;20312;-63
2023/03/13 02:58:43;;;;;;;3.17;0.70;;;;;;;10.78;89.61;97953.28;4967630;28;20243;-62
2023/03/13 03:01:10;;;;;;;2.83;0.73;;;;;;;10.80;90.77;97963.53;4983361;28;20657;-61
2023/03/13 03:03:40;;;;;;;3.83;0.70;;;;;;;10.86;90.25;97945.41;4966449;28;20223;-62
2023/03/13 03:06:07;;;;;;;5.20;0.77;;;;;;;10.90;90.92;97946.72;4955525;28;20235;-62
2023/03/13 03:08:35;;;;;;;1.43;0.63;;;;;;;10.92;91.41;97967.41;4956831;28;20301;-62
2023/03/13 03:11:05;;;;;;;3.07;0.60;;;;;;;10.91;91.10;97965.78;4959583;28;20236;-60
2023/03/13 03:13:33;;;;;;;2.73;0.70;;;;;;;10.91;91.31;97950.13;4959789;28;20668;-61
2023/03/13 03:16:06;;;;;;;2.93;0.67;;;;;;;10.94;91.34;97957.63;4957988;28;20342;-62
2023/03/13 03:18:32;;;;;;;4.83;0.70;;;;;;;10.94;92.11;97955.00;4963613;28;20231;-61
2023/03/13 03:20:59;;;;;;;2.00;0.80;;;;;;;10.97;91.92;97959.09;4966138;28;20267;-61
2023/03/13 03:23:26;;;;;;;0.80;0.50;;;;;;;11.06;90.84;97948.44;4959568;28;20225;-61
2023/03/13 03:25:52;;;;;;;1.40;0.57;;;;;;;11.05;91.00;97972.91;4972038;28;20255;-61
2023/03/13 03:28:19;;;;;;;3.03;0.60;;;;;;;11.10;91.16;97950.69;4970418;28;20229;-61
2023/03/13 03:30:47;;;;;;;1.63;0.87;;;;;;;11.20;88.59;97939.03;4953093;28;20749;-61
2023/03/13 03:33:14;;;;;;;3.20;0.60;;;;;;;11.29;87.11;97945.03;4962237;28;20231;-61
2023/03/13 03:35:41;;;;;;;1.83;0.50;;;;;;;11.37;86.80;97965.06;4955820;28;20278;-62
2023/03/13 03:38:09;;;;;;;2.00;0.60;;;;;;;11.36;87.59;97958.22;4974132;28;20236;-62
2023/03/13 03:40:36;;;;;;;3.37;0.50;;;;;;;11.40;87.16;97938.59;4957940;28;20218;-62
2023/03/13 03:43:03;;;;;;;1.20;0.53;;;;;;;11.41;86.13;97948.06;4992920;28;20247;-61
2023/03/13 03:45:30;;;;;;;2.33;0.40;;;;;;;11.40;87.22;97936.00;4964216;28;20313;-61
2023/03/13 03:47:59;;;;;;;3.40;0.83;;;;;;;11.40;87.56;97941.22;4979239;28;20235;-62
2023/03/13 03:50:26;;;;;;;1.73;0.63;;;;;;;11.43;87.07;97943.47;4971771;28;20247;-62
2023/03/13 03:52:58;;;;;;;2.70;0.60;;;;;;;11.48;86.17;97940.38;4967293;28;20263;-61
2023/03/13 03:55:26;;;;;;;2.63;0.60;;;;;;;11.52;86.38;97952.91;4984160;28;20222;-62
2023/03/13 03:57:52;;;;;;;1.57;0.67;;;;;;;11.47;87.18;97951.81;4980479;28;20243;-61
2023/03/13 04:04:04;;;;;;;1.40;0.70;;;;;;;11.47;86.56;97931.69;5687903;23;20320;-60
2023/03/13 04:06:31;;;;;;;2.97;0.80;;;;;;;11.54;86.27;97944.91;4932840;28;20237;-63
2023/03/13 04:08:58;;;;;;;1.63;0.60;;;;;;;11.60;85.17;97943.38;4948782;28;20228;-63
2023/03/13 04:11:28;;;;;;;3.77;0.70;;;;;;;11.52;86.33;97958.13;4942290;28;20591;-62
2023/03/13 04:13:55;;;;;;;1.10;0.50;;;;;;;11.52;86.48;97952.09;4933256;28;20225;-63
2023/03/13 04:16:23;;;;;;;2.77;0.60;;;;;;;11.63;85.11;97940.41;4964271;23;20378;-59
2023/03/13 04:18:50;;;;;;;1.33;0.50;;;;;;;11.62;86.09;97931.78;4965187;28;20232;-58
2023/03/13 04:21:19;;;;;;;2.10;0.50;;;;;;;11.63;86.62;97932.56;4965395;28;20561;-59
2023/03/13 04:23:53;;;;;;;2.20;0.77;;;;;;;11.62;85.54;97923.94;4954727;28;20256;-59
2023/03/13 04:26:21;;;;;;;2.33;0.70;;;;;;;11.58;87.14;97911.38;4962174;28;20311;-57
2023/03/13 04:28:50;;;;;;;2.60;0.70;;;;;;;11.66;86.28;97917.34;4935969;29;20233;-58
2023/03/13 04:31:22;;;;;;;1.30;0.50;;;;;;;11.70;86.69;97930.06;5198550;23;20239;-61
2023/03/13 04:34:11;;;;;;;1.33;0.40;;;;;;;11.68;86.50;97927.63;4960562;28;20317;-61
2023/03/13 04:36:50;;;;;;;2.10;0.40;;;;;;;11.69;87.04;97916.19;4946437;28;20232;-62
2023/03/13 04:39:35;;;;;;;0.70;0.40;;;;;;;11.72;86.41;97928.91;4963331;28;20279;-62
2023/03/13 04:42:28;;;;;;;1.60;0.40;;;;;;;11.71;86.65;97922.06;4941320;28;20452;-61
2023/03/13 04:45:03;;;;;;;1.87;0.50;;;;;;;11.71;87.18;97927.28;4963754;28;20595;-62
2023/03/13 04:47:46;;;;;;;3.10;0.50;;;;;;;11.72;87.52;97930.69;4928719;28;20745;-62
2023/03/13 04:50:32;;;;;;;1.73;0.40;;;;;;;11.74;86.80;97944.41;4944619;29;20237;-63
2023/03/13 04:53:13;;;;;;;1.33;0.30;;;;;;;11.75;87.27;97912.03;4930362;29;20232;-62
2023/03/13 04:56:03;;;;;;;1.10;0.30;;;;;;;11.72;86.70;97913.22;4913921;28;20231;-62
2023/03/13 04:58:36;;;;;;;0.93;0.30;;;;;;;11.76;86.68;97929.34;4964185;28;20583;-62
2023/03/13 05:01:15;;;;;;;0.87;0.40;;;;;;;11.82;86.52;97932.09;4965759;28;20326;-62
2023/03/13 05:03:54;;;;;;;0.70;0.30;;;;;;;11.85;86.56;97941.38;4963169;28;20232;-62
2023/03/13 05:06:33;;;;;;;1.67;0.40;;;;;;;11.82;88.68;97963.47;4962750;28;20236;-62
2023/03/13 05:09:16;;;;;;;1.13;0.40;;;;;;;11.63;92.55;97949.09;4949787;28;20235;-63
2023/03/13 05:12:07;;;;;;;1.53;0.50;;;;;;;11.51;94.43;97945.25;4918631;28;20313;-62
2023/03/13 05:14:54;;;;;;;0.30;0.17;;;;;;;11.45;95.10;97946.75;4951163;28;20398;-63
2023/03/13 05:17:41;;;;;;;2.33;0.30;;;;;;;11.41;95.64;97953.28;4963666;28;20587;-62
2023/03/13 05:20:28;;;;;;;1.00;0.70;;;;;;;11.30;97.04;97935.41;4965124;28;20225;-62
2023/03/13 05:23:20;;;;;;;0.40;0.40;;;;;;;11.24;97.92;97934.31;4954814;28;20706;-61
2023/03/13 05:26:06;;;;;;;0.63;0.60;;;;;;;11.27;96.85;97925.28;4963809;28;20234;-62
2023/03/13 05:28:52;;;;;;;4.40;3.13;;;;;;;11.24;98.37;97939.53;4928154;29;20326;-61
2023/03/13 05:31:31;;;;;;;1.73;1.23;;;;;;;11.24;97.28;97934.31;4953109;28;20386;-63
2023/03/13 05:33:58;;;;;;;1.80;0.40;;;;;;;11.23;97.49;97943.13;4964768;28;20236;-61
2023/03/13 05:36:48;;;;;;;0.60;0.30;;;;;;;11.26;97.43;97926.28;4930245;28;20246;-62
2023/03/13 05:39:33;;;;;;;0.83;0.60;;;;;;;11.30;96.99;97941.44;4963206;28;20306;-61
2023/03/13 05:42:16;;;;;;;0.67;0.50;;;;;;;11.39;96.36;97962.31;4966504;28;20246;-61
2023/03/13 05:45:18;;;;;;;1.63;0.70;;;;;;;11.37;96.83;97950.22;4942213;28;20243;-61
2023/03/13 05:48:00;;;;;;;1.40;1.00;;;;;;;11.39;96.38;97951.84;4960608;28;20231;-62
2023/03/13 05:50:53;;;;;;;2.47;0.50;;;;;;;11.46;95.18;97947.56;4958796;28;20255;-61
2023/03/13 05:53:42;;;;;;;1.00;0.70;;;;;;;11.44;95.89;97947.72;4946271;28;20238;-61
2023/03/13 05:56:26;;;;;;;1.17;0.37;;;;;;;11.44;96.52;97944.31;4962162;28;20322;-61
2023/03/13 05:59:10;;;;;;;0.50;0.30;;;;;;;11.46;95.58;97931.88;4963614;28;20321;-61
2023/03/13 06:01:55;;;;;;;0.70;0.30;;;;;;;11.44;96.22;97939.88;4945722;28;20291;-61
2023/03/13 06:04:30;;;;;;;1.23;0.50;;;;;;;11.48;96.06;97954.22;4947430;28;20890;-61
2023/03/13 06:06:57;;;;;;;0.60;0.40;;;;;;;11.45;95.95;97961.63;4962991;28;20283;-61
2023/03/13 06:09:24;;;;;;;1.00;0.67;;;;;;;11.47;95.90;97962.25;4947317;28;20255;-61
2023/03/13 06:11:52;;;;;;;2.00;0.50;;;;;;;11.50;95.19;97960.09;4929133;28;20248;-61
2023/03/13 06:14:21;;;;;;;1.00;0.40;;;;;;;11.48;95.30;97956.03;4948040;28;20692;-61
2023/03/13 06:17:07;;;;;;;1.63;0.40;;;;;;;11.54;94.88;97944.06;4920369;28;20686;-61
2023/03/13 06:19:34;;;;;;;1.37;0.30;;;;;;;11.56;94.96;97956.00;4963083;28;20314;-61
2023/03/13 06:22:00;;;;;;;1.00;0.50;;;;;;;11.59;94.70;97945.19;4965616;28;20610;-61
2023/03/13 06:24:27;;;;;;;0.90;0.40;;;;;;;11.56;95.26;97963.84;4964554;28;20230;-61
2023/03/13 06:26:54;;;;;;;2.83;0.30;;;;;;;11.52;95.39;97958.13;4963806;28;20236;-61
2023/03/13 06:29:23;;;;;;;0.83;0.50;;;;;;;11.54;95.58;97947.50;4965372;28;20227;-61
2023/03/13 06:31:49;;;;;;;0.50;0.40;;;;;;;11.53;95.91;97943.28;4960869;28;20338;-61
2023/03/13 06:34:16;;;;;;;0.80;0.20;;;;;;;11.57;94.88;97941.94;4963697;28;20236;-61
2023/03/13 06:36:43;;;;;;;0.73;0.30;;;;;;;11.59;95.27;97953.03;4961095;28;20224;-61
2023/03/13 06:39:11;;;;;;;0.40;0.40;;;;;;;11.71;94.83;97968.28;4965572;28;20232;-61
2023/03/13 06:41:37;;;;;;;0.70;0.40;;;;;;;11.75;94.41;97956.50;4962603;28;20258;-62
2023/03/13 06:44:05;;;;;;;0.77;0.40;;;;;;;11.70;95.71;97964.03;4965366;28;20294;-61
2023/03/13 06:46:33;;;;;;;0.60;0.30;;;;;;;11.72;94.72;97972.53;4964044;28;20227;-61
2023/03/13 06:49:03;;;;;;;0.70;0.70;;;;;;;11.78;93.92;97964.00;4964255;28;20231;-61
2023/03/13 06:51:30;;;;;;;1.23;0.40;;;;;;;11.76;93.99;97979.03;4964440;28;20628;-61
2023/03/13 06:53:56;;;;;;;1.47;0.60;;;;;;;11.83;93.59;97985.19;4963776;28;20589;-61
2023/03/13 06:56:23;;;;;;;0.33;0.30;;;;;;;11.82;94.19;97973.94;4965778;28;20640;-61
2023/03/13 06:58:50;;;;;;;1.07;0.60;;;;;;;11.87;93.57;97962.94;4962802;28;20774;-61
2023/03/13 07:01:17;;;;;;;0.33;0.30;;;;;;;11.94;92.88;97961.25;4965885;28;21153;-62
2023/03/13 07:03:47;;;;;;;2.23;0.50;;;;;;;11.97;92.88;97954.88;4961961;28;20766;-63
2023/03/13 07:06:13;;;;;;;1.60;0.30;;;;;;;12.09;92.00;97963.97;4965770;28;20294;-63
2023/03/13 07:08:40;;;;;;;0.60;0.50;;;;;;;12.13;92.49;97959.16;4966339;28;20592;-63
2023/03/13 07:11:08;;;;;;;1.30;0.70;;;;;;;12.10;91.73;97947.28;4968930;28;20239;-63
2023/03/13 07:13:35;;;;;;;2.77;1.50;;;;;;;12.18;91.68;97953.41;4966152;28;20240;-63
2023/03/13 07:16:04;;;;;;;1.23;0.73;;;;;;;12.16;92.34;97930.03;4969190;28;20241;-64
2023/03/13 07:18:31;;;;;;;0.70;0.50;;;;;;;12.16;92.11;97931.84;4967909;28;20343;-63
2023/03/13 07:21:00;;;;;;;3.37;1.27;;;;;;;12.14;92.29;97934.63;4966996;28;20236;-63
2023/03/13 07:23:29;;;;;;;0.97;0.70;;;;;;;12.22;91.90;97934.56;4967572;28;20240;-62
2023/03/13 07:25:58;;;;;;;1.70;1.17;;;;;;;12.25;91.37;97941.22;4967103;28;20369;-62
2023/03/13 07:28:25;;;;;;;1.17;1.03;;;;;;;12.33;90.90;97877.53;4969075;28;20241;-63
2023/03/13 07:30:52;;;;;;;1.00;0.60;;;;;;;12.49;90.31;97859.03;4964711;28;20233;-62
2023/03/13 07:33:19;;;;;;;2.20;0.60;;;;;;;12.57;89.22;97873.81;4968896;28;20244;-62
2023/03/13 07:35:49;;;;;;;1.87;0.97;;;;;;;12.69;89.03;97867.13;4965952;28;20244;-63
2023/03/13 07:38:18;;;;;;;2.50;0.73;;;;;;;12.76;88.49;97890.75;4968059;28;20236;-63
2023/03/13 07:40:49;;;;;;;0.95;0.70;;;;;;;12.83;87.54;97864.66;4965557;28;20446;-63
2023/03/13 07:43:15;;;;;;;0.70;0.43;;;;;;;12.94;87.72;97863.38;4968739;28;20323;-63
2023/03/13 07:45:50;;;;;;;1.33;1.00;;;;;;;13.08;86.47;97865.13;4965934;28;20228;-64
2023/03/13 07:48:17;;;;;;;0.70;0.50;;;;;;;13.27;86.06;97862.91;4968348;28;20237;-63
2023/03/13 07:50:44;;;;;;;2.10;0.60;;;;;;;13.37;85.44;97881.75;4965193;28;20268;-63
2023/03/13 07:53:10;;;;;;;1.07;0.50;;;;;;;13.44;84.85;97879.22;4967316;28;20246;-63
2023/03/13 07:55:38;;;;;;;3.73;0.70;;;;;;;13.41;84.25;97880.41;4965402;28;20300;-63
2023/03/13 07:58:05;;;;;;;1.70;1.50;;;;;;;13.48;83.74;97863.94;4968413;28;20288;-63
2023/03/13 08:00:31;;;;;;;0.73;0.43;;;;;;;13.48;83.73;97877.03;4966898;28;20273;-63
2023/03/13 08:02:58;;;;;;;1.70;1.30;;;;;;;13.38;83.78;97878.13;4966230;28;20744;-63
2023/03/13 08:05:24;;;;;;;4.30;1.23;;;;;;;13.46;84.47;97881.66;4967561;28;20237;-64
2023/03/13 08:07:51;;;;;;;1.13;0.87;;;;;;;13.48;84.00;97877.03;4965361;28;20264;-62
2023/03/13 08:10:18;;;;;;;1.50;1.17;;;;;;;13.70;82.56;97886.53;4968431;28;20235;-63
2023/03/13 08:12:46;;;;;;;0.70;0.60;;;;;;;13.52;83.21;97894.03;4965250;28;20239;-63
2023/03/13 08:15:12;;;;;;;2.07;0.57;;;;;;;13.37;83.41;97888.78;4968260;28;20242;-63
2023/03/13 08:17:39;;;;;;;0.77;0.60;;;;;;;13.34;83.82;97890.00;4964309;28;20885;-63
2023/03/13 08:20:08;;;;;;;1.17;0.53;;;;;;;13.34;84.12;97878.69;4967938;28;20229;-63
2023/03/13 08:22:35;;;;;;;2.83;0.57;;;;;;;13.30;83.98;97886.13;4965043;28;20265;-63
2023/03/13 08:25:02;;;;;;;2.30;0.70;;;;;;;13.26;83.43;97892.72;4967659;28;20293;-63
2023/03/13 08:27:29;;;;;;;2.63;0.70;;;;;;;13.11;84.07;97887.53;4966886;28;20773;-63
2023/03/13 08:29:57;;;;;;;2.17;0.87;;;;;;;13.08;85.09;97901.81;4966228;28;20597;-63
2023/03/13 08:32:24;;;;;;;1.50;0.70;;;;;;;13.11;84.54;97883.09;4967549;28;20233;-63
2023/03/13 08:34:50;;;;;;;1.37;1.13;;;;;;;13.10;84.38;97864.97;4964351;28;20237;-63
2023/03/13 08:37:17;;;;;;;2.30;0.80;;;;;;;13.22;83.45;97876.56;4967884;28;20311;-63
2023/03/13 08:39:44;;;;;;;0.70;0.53;;;;;;;13.29;83.64;97876.63;4964348;28;20225;-63
2023/03/13 08:42:13;;;;;;;1.23;0.70;;;;;;;13.33;83.77;97864.78;4967295;28;20654;-64
2023/03/13 08:44:39;;;;;;;1.03;0.73;;;;;;;13.43;82.76;97867.94;4963078;28;20309;-64
2023/03/13 08:47:08;;;;;;;2.40;0.83;;;;;;;13.57;83.04;97854.94;4965998;28;20747;-64
2023/03/13 08:49:35;;;;;;;1.93;0.97;;;;;;;13.65;81.86;97862.66;4963315;28;20318;-64
2023/03/13 08:52:03;;;;;;;0.97;0.70;;;;;;;13.79;80.27;97854.88;4966168;28;20708;-64
2023/03/13 08:54:30;;;;;;;2.40;0.70;;;;;;;13.98;79.90;97835.84;4966139;28;20237;-64
2023/03/13 08:56:56;;;;;;;1.53;0.70;;;;;;;14.01;78.73;97832.84;4963261;28;20224;-63
2023/03/13 08:59:23;;;;;;;2.63;1.00;;;;;;;14.20;79.70;97837.59;4965609;28;20710;-64
2023/03/13 09:01:49;;;;;;;1.30;1.00;;;;;;;14.27;79.46;97834.00;4960364;28;20308;-63
2023/03/13 09:04:18;;;;;;;4.70;1.90;;;;;;;14.43;77.80;97847.81;4945555;29;20211;-64
2023/03/13 09:06:45;;;;;;;3.70;2.30;;;;;;;14.38;76.69;97832.63;4945623;28;20236;-63
2023/03/13 09:09:13;;;;;;;17.97;11.27;;;;;;;14.70;76.02;97838.25;4966517;28;20234;-63
2023/03/13 09:11:40;;;;;;;4.90;2.60;;;;;;;14.89;74.63;97815.66;4931673;28;20230;-63
2023/03/13 09:14:08;;;;;;;2.27;1.70;;;;;;;14.96;73.83;97804.34;4965597;28;20594;-64
2023/03/13 09:16:35;;;;;;;3.10;2.60;;;;;;;14.80;73.14;97832.63;4964213;28;20235;-63
2023/03/13 09:19:02;;;;;;;3.93;2.40;;;;;;;14.81;74.42;97817.66;4966352;28;20230;-63
2023/03/13 09:21:32;;;;;;;4.70;2.80;;;;;;;14.69;74.02;97820.88;4965296;28;20234;-64
2023/03/13 09:23:59;;;;;;;4.47;3.60;;;;;;;14.73;73.95;97814.22;4964544;28;20290;-64
2023/03/13 09:26:27;;;;;;;2.73;2.23;;;;;;;14.68;73.39;97816.59;4966785;28;20431;-64
2023/03/13 09:28:55;;;;;;;2.07;1.53;;;;;;;14.76;72.99;97813.03;4963148;28;20243;-64
2023/03/13 09:31:24;;;;;;;6.03;1.43;;;;;;;14.89;73.23;97801.72;4965304;28;20219;-64
2023/03/13 09:33:51;;;;;;;2.13;1.20;;;;;;;15.10;72.95;97792.06;4946111;28;20694;-63
2023/03/13 09:36:19;;;;;;;1.87;1.00;;;;;;;15.06;71.60;97796.91;4964859;28;20223;-63
2023/03/13 09:38:47;;;;;;;1.50;1.00;;;;;;;15.20;70.86;97793.28;4963491;28;20235;-64
2023/03/13 09:41:23;;;;;;;3.60;1.17;;;;;;;14.97;70.71;97769.19;4965751;28;20243;-64
2023/03/13 09:43:53;;;;;;;4.43;1.17;;;;;;;15.22;71.32;97777.31;4963340;28;20325;-65
2023/03/13 09:46:25;;;;;;;3.77;1.30;;;;;;;15.59;69.46;97775.06;4964348;28;20643;-64
2023/03/13 09:48:56;;;;;;;3.87;0.80;;;;;;;15.62;69.74;97779.13;4961921;28;20244;-63
2023/03/13 09:51:25;;;;;;;2.80;1.37;;;;;;;15.68;69.19;97775.66;4965439;28;20233;-63
2023/03/13 09:53:59;;;;;;;3.33;0.90;;;;;;;15.76;68.34;97775.47;4962944;28;20239;-63
2023/03/13 09:56:31;;;;;;;2.17;1.03;;;;;;;15.84;68.60;97779.69;4964395;28;20255;-63
2023/03/13 09:59:05;;;;;;;1.70;0.90;;;;;;;15.79;67.80;97761.88;4962308;28;20249;-64
2023/03/13 10:01:35;;;;;;;2.33;1.80;;;;;;;16.14;66.86;97746.81;4963942;28;20234;-64
2023/03/13 10:04:08;;;;;;;5.50;3.70;;;;;;;16.44;65.85;97746.28;4964066;28;20749;-64
2023/03/13 10:06:40;;;;;;;3.37;2.07;;;;;;;16.73;65.55;97755.44;4963148;28;20231;-64
2023/03/13 10:09:19;;;;;;;3.23;2.17;;;;;;;16.82;64.44;97761.28;4966009;28;20240;-64
2023/03/13 10:11:57;;;;;;;6.87;3.70;;;;;;;16.61;64.81;97746.59;4950474;28;20260;-69
2023/03/13 10:14:30;;;;;;;3.50;1.77;;;;;;;16.60;63.97;97745.81;4964341;28;20233;-64
2023/03/13 10:17:05;;;;;;;5.53;4.37;;;;;;;16.74;63.77;97740.44;4962707;28;20946;-64
2023/03/13 10:19:36;;;;;;;3.80;2.40;;;;;;;16.66;64.09;97739.69;4964613;28;20795;-64
2023/03/13 10:22:11;;;;;;;2.97;1.30;;;;;;;16.37;65.39;97728.69;4962877;28;20231;-64
2023/03/13 10:24:44;;;;;;;6.30;2.43;;;;;;;16.90;65.39;97715.41;4962936;28;20287;-64
2023/03/13 10:27:13;;;;;;;4.77;2.40;;;;;;;17.01;64.28;97712.09;4963858;28;20237;-64
2023/03/13 10:29:40;;;;;;;3.57;1.70;;;;;;;17.30;63.07;97715.13;4956466;28;20374;-63
2023/03/13 10:32:10;;;;;;;3.33;1.00;;;;;;;17.38;63.20;97725.38;4961676;28;20586;-63
2023/03/13 10:34:49;;;;;;;2.20;0.70;;;;;;;16.42;64.84;97727.25;4960244;28;20311;-64
2023/03/13 10:37:20;;;;;;;1.90;1.07;;;;;;;16.79;64.39;97727.44;4955904;28;20731;-63
2023/03/13 10:39:48;;;;;;;4.50;2.07;;;;;;;17.09;64.18;97719.75;4962232;28;20252;-63
2023/03/13 10:42:21;;;;;;;3.00;1.60;;;;;;;17.27;64.43;97707.63;4966423;28;20651;-63
2023/03/13 10:44:48;;;;;;;3.03;1.70;;;;;;;17.39;62.69;97702.44;4966201;28;20233;-63
2023/03/13 10:47:15;;;;;;;7.27;5.13;;;;;;;17.26;63.26;97690.19;4969159;28;20233;-63
2023/03/13 10:49:49;;;;;;;3.40;1.50;;;;;;;17.21;63.35;97688.19;4966347;28;20307;-63
2023/03/13 10:52:30;;;;;;;4.67;1.23;;;;;;;16.89;64.73;97685.63;4968152;28;20295;-63
2023/03/13 10:55:02;;;;;;;4.77;1.00;;;;;;;16.95;63.74;97684.75;4964138;28;20244;-63
2023/03/13 10:57:31;;;;;;;1.97;1.10;;;;;;;16.72;65.72;97676.63;4966872;28;20227;-63
2023/03/13 10:59:58;;;;;;;3.10;1.10;;;;;;;16.62;65.48;97684.97;4965352;28;20297;-63
2023/03/13 11:02:28;;;;;;;3.60;2.10;;;;;;;16.79;64.90;97653.66;4967957;28;20231;-61
2023/03/13 11:04:56;;;;;;;3.73;0.90;;;;;;;16.53;65.60;97650.19;4964050;28;20255;-62
2023/03/13 11:07:28;;;;;;;10.17;5.50;;;;;;;16.66;66.32;97650.09;4960584;28;20306;-62
2023/03/13 11:10:02;;;;;;;5.23;2.63;;;;;;;16.74;65.66;97635.84;4965699;28;20248;-62
2023/03/13 11:12:34;;;;;;;38.83;20.03;;;;;;;16.77;66.32;97645.16;4967093;28;20223;-62
2023/03/13 11:15:01;;;;;;;9.27;5.73;;;;;;;16.82;65.16;97629.50;4965639;28;20248;-62
2023/03/13 11:17:34;;;;;;;11.93;6.03;;;;;;;16.82;64.45;97632.94;4966415;28;20227;-63
2023/03/13 11:20:17;;;;;;;3.90;0.90;;;;;;;17.01;63.47;97632.19;4966358;28;20227;-63
2023/03/13 11:22:53;;;;;;;3.40;2.30;;;;;;;17.04;63.66;97629.94;4965116;28;20924;-63
2023/03/13 11:25:34;;;;;;;2.50;1.03;;;;;;;17.15;62.11;97624.97;4968248;28;20228;-63
2023/03/13 11:28:16;;;;;;;2.90;1.60;;;;;;;17.30;61.74;97617.53;4965268;28;20233;-63
2023/03/13 11:31:00;;;;;;;2.67;1.60;;;;;;;17.40;62.25;97625.75;4965826;28;20255;-63
2023/03/13 11:33:35;;;;;;;2.07;1.67;;;;;;;17.44;61.22;97606.84;4966137;28;20631;-63
2023/03/13 11:36:05;;;;;;;6.03;1.20;;;;;;;17.51;61.37;97612.81;4949420;28;20290;-63
2023/03/13 11:38:36;;;;;;;2.93;1.30;;;;;;;17.71;60.67;97594.91;4965858;28;20225;-63
2023/03/13 11:41:22;;;;;;;2.38;0.93;;;;;;;17.69;59.58;97594.31;4965578;28;20996;-64
2023/03/13 11:44:00;;;;;;;1.83;0.73;;;;;;;17.81;59.57;97588.31;4964568;28;20628;-63
2023/03/13 11:46:48;;;;;;;1.57;0.90;;;;;;;17.92;59.56;97576.19;4965809;28;20226;-63
2023/03/13 11:49:36;;;;;;;1.97;0.70;;;;;;;18.10;57.56;97572.72;4966690;28;20233;-64
2023/03/13 11:52:20;;;;;;;1.20;0.80;;;;;;;17.90;57.41;97565.06;4963727;28;20235;-63
2023/03/13 11:55:02;;;;;;;1.17;0.70;;;;;;;18.15;57.94;97544.59;4964457;28;20236;-63
2023/03/13 11:57:34;;;;;;;1.00;0.83;;;;;;;18.10;56.97;97548.94;4966689;28;20238;-63